Time;durP1;ratioP1;P1;durP2;ratioP2;P2;SDS_P1;SDS_P2;PMS_P1;PMS_P2;Temp;Humidity;BMP_temperature;BMP_pressure;BME280_temperature;BME280_humidity;BME280_pressure;Samples;Min_cycle;Max_cycle;Signal;HPM_P1;HPM_P2
2024/03/22 00:01:49;;;;;;;19.20;8.75;;;12.60;98.40;;;;;;5051857;28;20068;-72
2024/03/22 00:04:16;;;;;;;18.90;10.15;;;12.50;98.40;;;;;;5062466;28;20056;-72
2024/03/22 00:06:43;;;;;;;15.95;7.88;;;12.50;98.30;;;;;;5064374;28;20463;-72
2024/03/22 00:09:09;;;;;;;13.43;5.95;;;12.60;98.50;;;;;;5050227;28;20280;-72
2024/03/22 00:11:35;;;;;;;28.35;14.75;;;12.60;98.40;;;;;;5048134;28;20107;-72
2024/03/22 00:14:02;;;;;;;18.95;8.65;;;12.60;98.50;;;;;;5060687;28;20031;-72
2024/03/22 00:16:27;;;;;;;18.13;7.72;;;12.60;98.80;;;;;;5055900;28;20033;-72
2024/03/22 00:18:53;;;;;;;23.55;12.73;;;12.60;98.60;;;;;;5060957;28;20111;-72
2024/03/22 00:21:19;;;;;;;11.50;6.63;;;12.60;98.50;;;;;;5051627;28;20547;-72
2024/03/22 00:23:45;;;;;;;12.85;7.00;;;12.60;98.60;;;;;;5052145;28;20036;-72
2024/03/22 00:26:11;;;;;;;9.45;5.95;;;12.60;98.60;;;;;;5057134;28;20033;-72
2024/03/22 00:28:37;;;;;;;15.02;8.32;;;12.60;98.60;;;;;;5051287;28;20032;-72
2024/03/22 00:31:02;;;;;;;6.22;3.88;;;12.60;98.60;;;;;;5071413;28;20257;-72
2024/03/22 00:33:28;;;;;;;17.73;8.15;;;12.60;98.60;;;;;;5058710;28;20047;-72
2024/03/22 00:35:53;;;;;;;24.00;12.25;;;12.60;98.70;;;;;;5059548;28;20767;-72
2024/03/22 00:38:19;;;;;;;16.85;7.60;;;12.60;98.70;;;;;;5049160;28;20111;-72
2024/03/22 00:40:45;;;;;;;15.45;8.35;;;12.60;98.70;;;;;;5049807;28;20025;-71
2024/03/22 00:43:10;;;;;;;25.80;10.77;;;12.60;98.70;;;;;;5048706;28;20480;-72
2024/03/22 00:45:36;;;;;;;14.82;7.47;;;12.60;98.70;;;;;;5051366;28;20048;-72
2024/03/22 00:48:02;;;;;;;26.17;11.88;;;12.60;98.80;;;;;;5051078;28;20029;-72
2024/03/22 00:50:27;;;;;;;21.27;10.55;;;12.60;98.90;;;;;;5066868;28;20040;-72
2024/03/22 00:52:56;;;;;;;18.70;10.70;;;12.60;98.90;;;;;;5067679;28;20059;-72
2024/03/22 00:55:22;;;;;;;29.80;13.88;;;12.60;98.90;;;;;;5070773;28;20035;-71
2024/03/22 00:57:48;;;;;;;14.82;8.25;;;12.60;99.00;;;;;;5052351;28;20132;-72
2024/03/22 01:00:15;;;;;;;23.45;11.88;;;12.60;99.00;;;;;;5059716;28;20181;-72
2024/03/22 01:02:41;;;;;;;16.73;8.40;;;12.60;99.00;;;;;;5054849;28;20036;-72
2024/03/22 01:05:07;;;;;;;21.70;10.05;;;12.60;99.10;;;;;;5060447;28;20041;-72
2024/03/22 01:07:32;;;;;;;27.10;12.38;;;12.60;99.10;;;;;;5052709;28;20032;-72
2024/03/22 01:09:58;;;;;;;15.15;7.43;;;12.60;99.10;;;;;;5062248;28;20388;-72
2024/03/22 01:12:24;;;;;;;13.23;6.82;;;12.60;99.10;;;;;;5049897;28;20036;-72
2024/03/22 01:14:49;;;;;;;15.88;9.43;;;12.60;99.20;;;;;;5049418;28;20451;-72
2024/03/22 01:17:15;;;;;;;22.85;10.65;;;12.60;99.20;;;;;;5051029;28;20033;-72
2024/03/22 01:19:40;;;;;;;16.45;7.45;;;12.60;99.20;;;;;;5047690;28;20052;-72
2024/03/22 01:22:06;;;;;;;16.33;9.15;;;12.70;99.30;;;;;;5051379;28;20029;-72
2024/03/22 01:24:32;;;;;;;21.13;10.52;;;12.70;99.20;;;;;;5052906;28;20071;-72
2024/03/22 01:26:58;;;;;;;15.73;8.90;;;12.70;99.30;;;;;;5056162;28;20076;-72
2024/03/22 01:29:23;;;;;;;28.48;12.25;;;12.70;99.30;;;;;;5054081;28;20064;-72
2024/03/22 01:31:49;;;;;;;13.70;7.57;;;12.70;99.30;;;;;;5060327;28;20567;-72
2024/03/22 01:34:15;;;;;;;23.30;12.05;;;12.70;99.30;;;;;;5051011;28;20031;-72
2024/03/22 01:36:41;;;;;;;16.33;8.10;;;12.70;99.30;;;;;;5050307;28;20033;-72
2024/03/22 01:39:06;;;;;;;18.42;8.05;;;12.70;99.30;;;;;;5050449;28;20029;-72
2024/03/22 01:41:32;;;;;;;16.77;9.60;;;12.70;99.30;;;;;;5063381;28;20064;-72
2024/03/22 01:44:00;;;;;;;21.58;11.32;;;12.80;99.30;;;;;;5061974;28;20021;-72
2024/03/22 01:46:26;;;;;;;21.08;10.80;;;12.80;99.30;;;;;;5050509;28;20041;-72
2024/03/22 01:48:52;;;;;;;20.13;10.07;;;12.70;99.30;;;;;;5057265;28;20016;-72
2024/03/22 01:51:18;;;;;;;22.25;10.38;;;12.70;99.40;;;;;;5051014;28;20120;-72
2024/03/22 01:53:44;;;;;;;24.02;10.65;;;12.80;99.40;;;;;;5061173;28;20381;-72
2024/03/22 01:56:10;;;;;;;16.02;8.68;;;12.80;99.40;;;;;;5056025;28;20048;-72
2024/03/22 01:58:36;;;;;;;10.98;6.07;;;12.80;99.40;;;;;;5051813;28;20060;-72
2024/03/22 02:01:02;;;;;;;24.30;11.90;;;12.80;99.50;;;;;;5055311;28;20025;-72
2024/03/22 02:03:27;;;;;;;19.60;10.77;;;12.90;99.50;;;;;;5050373;28;20487;-72
2024/03/22 02:05:53;;;;;;;33.85;14.98;;;12.90;99.40;;;;;;5049739;28;20040;-72
2024/03/22 02:08:19;;;;;;;22.83;11.10;;;12.90;99.40;;;;;;5061355;28;20111;-71
2024/03/22 02:10:45;;;;;;;31.27;13.82;;;12.90;99.40;;;;;;5054148;28;20043;-72
2024/03/22 02:13:11;;;;;;;23.88;11.70;;;13.00;99.40;;;;;;5048689;28;20079;-72
2024/03/22 02:15:36;;;;;;;29.80;14.98;;;12.90;99.40;;;;;;5049447;28;20032;-72
2024/03/22 02:18:02;;;;;;;18.35;8.88;;;12.90;99.40;;;;;;5048487;28;20381;-72
2024/03/22 02:20:28;;;;;;;21.05;11.18;;;12.90;99.50;;;;;;5058201;28;20035;-72
2024/03/22 02:22:53;;;;;;;28.85;13.30;;;12.90;99.50;;;;;;5060298;28;20033;-72
2024/03/22 02:25:19;;;;;;;24.17;11.07;;;12.90;99.50;;;;;;5059347;28;20041;-72
2024/03/22 02:27:45;;;;;;;22.45;11.50;;;13.00;99.50;;;;;;5058566;28;20028;-72
2024/03/22 02:30:11;;;;;;;24.60;11.50;;;13.00;99.50;;;;;;5063706;28;20032;-72
2024/03/22 02:32:38;;;;;;;28.98;12.65;;;13.00;99.50;;;;;;5058518;28;20360;-72
2024/03/22 02:35:04;;;;;;;17.02;9.38;;;13.00;99.50;;;;;;5066855;28;20879;-72
2024/03/22 02:37:29;;;;;;;17.42;8.75;;;13.00;99.60;;;;;;5067990;28;20037;-72
2024/03/22 02:39:55;;;;;;;18.52;9.63;;;13.00;99.60;;;;;;5068246;28;20048;-72
2024/03/22 02:42:21;;;;;;;6.63;4.90;;;13.00;99.60;;;;;;5050252;28;20037;-72
2024/03/22 02:44:46;;;;;;;18.33;9.32;;;13.00;99.70;;;;;;5048372;28;20049;-72
2024/03/22 02:47:14;;;;;;;35.92;15.80;;;13.00;99.70;;;;;;5050460;28;20025;-72
2024/03/22 02:49:40;;;;;;;25.48;6.68;;;13.00;99.70;;;;;;5058717;28;20677;-72
2024/03/22 02:52:06;;;;;;;27.40;10.63;;;13.00;99.70;;;;;;5047667;28;20028;-72
2024/03/22 02:54:32;;;;;;;24.25;10.38;;;13.00;99.70;;;;;;5058389;28;20517;-72
2024/03/22 02:56:57;;;;;;;20.98;9.75;;;13.00;99.70;;;;;;5053852;28;20028;-72
2024/03/22 02:59:26;;;;;;;26.98;11.82;;;13.10;99.80;;;;;;5068661;28;20056;-72
2024/03/22 03:01:52;;;;;;;20.23;8.93;;;13.10;99.80;;;;;;5059820;28;20024;-72
2024/03/22 03:04:18;;;;;;;25.95;11.98;;;13.10;99.70;;;;;;5060818;28;20582;-72
2024/03/22 03:06:45;;;;;;;16.45;7.90;;;13.10;99.60;;;;;;5065170;28;20028;-72
2024/03/22 03:09:11;;;;;;;22.08;8.77;;;13.20;99.70;;;;;;5057522;28;20116;-72
2024/03/22 03:11:39;;;;;;;25.80;13.20;;;13.20;99.60;;;;;;5047633;28;20075;-72
2024/03/22 03:14:04;;;;;;;41.25;17.23;;;13.20;99.60;;;;;;5054046;28;20067;-72
2024/03/22 03:16:30;;;;;;;23.02;10.10;;;13.20;99.60;;;;;;5053304;28;20060;-72
2024/03/22 03:18:56;;;;;;;20.45;8.50;;;13.20;99.50;;;;;;5061077;28;20033;-72
2024/03/22 03:21:21;;;;;;;6.97;4.32;;;13.20;99.50;;;;;;5065198;28;20040;-72
2024/03/22 03:23:47;;;;;;;37.70;16.88;;;13.30;99.50;;;;;;5054111;28;20444;-72
2024/03/22 03:26:13;;;;;;;31.50;13.63;;;13.30;99.50;;;;;;5055695;28;20029;-72
2024/03/22 03:28:38;;;;;;;18.83;10.23;;;13.30;99.70;;;;;;5062232;28;20468;-72
2024/03/22 03:31:04;;;;;;;26.15;11.48;;;13.30;99.40;;;;;;5054173;28;20028;-72
2024/03/22 03:33:30;;;;;;;25.27;11.23;;;13.30;99.40;;;;;;5056171;28;20027;-72
2024/03/22 03:35:56;;;;;;;27.02;11.90;;;13.30;99.50;;;;;;5053319;28;20037;-72
2024/03/22 03:38:22;;;;;;;33.08;12.85;;;13.30;99.50;;;;;;5051486;28;20033;-72
2024/03/22 03:40:48;;;;;;;27.67;10.82;;;13.40;99.50;;;;;;5054029;28;20459;-72
2024/03/22 03:43:13;;;;;;;20.88;9.05;;;13.40;99.40;;;;;;5055768;28;20040;-72
2024/03/22 03:45:39;;;;;;;26.77;11.32;;;13.40;99.40;;;;;;5052114;28;20044;-72
2024/03/22 03:48:05;;;;;;;25.42;11.00;;;13.40;99.40;;;;;;5057147;28;20029;-72
2024/03/22 03:50:31;;;;;;;37.72;13.27;;;13.40;99.50;;;;;;5049864;28;20495;-72
2024/03/22 03:52:57;;;;;;;29.95;12.55;;;13.40;99.60;;;;;;5051594;28;20024;-72
2024/03/22 03:55:23;;;;;;;33.05;15.27;;;13.30;99.60;;;;;;5060191;28;20554;-72
2024/03/22 03:57:51;;;;;;;29.83;14.48;;;13.30;99.70;;;;;;5056022;28;20056;-72
2024/03/22 04:00:20;;;;;;;33.33;11.82;;;13.30;99.80;;;;;;5051287;28;20025;-72
2024/03/22 04:02:48;;;;;;;28.23;13.07;;;13.30;99.90;;;;;;5064846;28;20055;-72
2024/03/22 04:05:14;;;;;;;27.58;12.75;;;13.20;99.90;;;;;;5054186;28;20392;-72
2024/03/22 04:07:42;;;;;;;45.70;14.70;;;13.20;99.90;;;;;;5067719;28;20025;-72
2024/03/22 04:10:08;;;;;;;34.63;13.25;;;13.20;99.90;;;;;;5049593;28;20028;-72
2024/03/22 04:12:34;;;;;;;23.45;12.50;;;13.20;99.90;;;;;;5050339;28;20052;-73
2024/03/22 04:15:00;;;;;;;31.17;12.27;;;13.20;99.90;;;;;;5050752;28;20033;-73
2024/03/22 04:17:25;;;;;;;17.25;9.05;;;13.20;99.90;;;;;;5059418;28;20060;-72
2024/03/22 04:19:52;;;;;;;32.25;15.57;;;13.20;99.90;;;;;;5049229;28;20464;-73
2024/03/22 04:22:18;;;;;;;35.97;16.13;;;13.10;99.90;;;;;;5054189;28;20029;-73
2024/03/22 04:24:43;;;;;;;27.63;11.30;;;13.20;99.90;;;;;;5057916;28;20404;-72
2024/03/22 04:27:09;;;;;;;30.02;13.95;;;13.20;99.90;;;;;;5051959;28;20040;-72
2024/03/22 04:29:34;;;;;;;29.60;12.30;;;13.10;99.90;;;;;;5050263;28;20024;-72
2024/03/22 04:32:00;;;;;;;26.33;12.30;;;13.10;99.90;;;;;;5056595;28;20017;-72
2024/03/22 04:34:26;;;;;;;37.97;14.93;;;13.10;99.90;;;;;;5066638;28;20518;-72
2024/03/22 04:36:52;;;;;;;26.88;13.30;;;13.10;99.90;;;;;;5059705;28;20384;-72
2024/03/22 04:39:24;;;;;;;38.97;16.75;;;13.10;99.90;;;;;;5051511;28;20408;-72
2024/03/22 04:41:49;;;;;;;21.40;10.75;;;13.10;99.90;;;;;;5048610;28;20116;-72
2024/03/22 04:44:15;;;;;;;39.92;15.52;;;13.20;99.90;;;;;;5051308;28;20175;-72
2024/03/22 04:46:41;;;;;;;28.60;12.75;;;13.10;99.90;;;;;;5070424;28;20063;-72
2024/03/22 04:49:07;;;;;;;32.72;13.60;;;13.20;99.90;;;;;;5068282;28;20564;-72
2024/03/22 04:51:33;;;;;;;31.65;10.90;;;13.20;99.90;;;;;;5063316;28;20577;-72
2024/03/22 04:53:58;;;;;;;21.83;10.48;;;13.20;99.90;;;;;;5063315;28;20170;-72
2024/03/22 04:56:24;;;;;;;34.97;14.30;;;13.30;99.90;;;;;;5063323;28;20079;-72
2024/03/22 04:58:49;;;;;;;37.30;14.52;;;13.30;99.90;;;;;;5049576;28;20064;-72
2024/03/22 05:01:15;;;;;;;29.77;11.13;;;13.30;99.90;;;;;;5058513;28;20507;-72
2024/03/22 05:03:41;;;;;;;24.17;11.18;;;13.30;99.90;;;;;;5062795;28;20483;-72
2024/03/22 05:06:07;;;;;;;26.13;11.25;;;13.30;99.90;;;;;;5065912;28;20170;-72
2024/03/22 05:08:32;;;;;;;23.25;9.43;;;13.30;99.90;;;;;;5060836;28;20099;-72
2024/03/22 05:10:58;;;;;;;30.17;11.93;;;13.30;99.90;;;;;;5058433;28;20926;-72
2024/03/22 05:13:24;;;;;;;17.05;7.95;;;13.30;99.90;;;;;;5063420;28;20033;-72
2024/03/22 05:15:49;;;;;;;27.00;13.15;;;13.20;99.90;;;;;;5062391;28;20162;-72
2024/03/22 05:18:15;;;;;;;41.97;15.88;;;13.30;99.90;;;;;;5061865;28;20104;-72
2024/03/22 05:20:41;;;;;;;37.45;16.48;;;13.30;99.90;;;;;;5058125;28;20106;-72
2024/03/22 05:23:06;;;;;;;43.95;15.57;;;13.20;99.90;;;;;;5050074;28;20111;-72
2024/03/22 05:25:32;;;;;;;46.50;17.58;;;13.20;99.90;;;;;;5056521;28;20041;-72
2024/03/22 05:27:57;;;;;;;35.28;12.43;;;13.20;99.90;;;;;;5053896;28;20024;-72
2024/03/22 05:30:23;;;;;;;33.03;15.85;;;13.20;99.90;;;;;;5060222;28;20392;-73
2024/03/22 05:32:50;;;;;;;36.50;15.52;;;13.20;99.90;;;;;;5063708;28;20029;-71
2024/03/22 05:35:15;;;;;;;39.80;13.95;;;13.20;99.90;;;;;;5070489;28;20040;-72
2024/03/22 05:37:41;;;;;;;35.78;12.52;;;13.20;99.90;;;;;;5058537;28;20025;-72
2024/03/22 05:40:08;;;;;;;32.60;12.40;;;13.20;99.90;;;;;;5054025;28;20032;-72
2024/03/22 05:42:34;;;;;;;25.40;11.30;;;13.10;99.90;;;;;;5069252;28;20036;-72
2024/03/22 05:45:00;;;;;;;36.28;15.63;;;13.20;99.90;;;;;;5068317;28;20102;-72
2024/03/22 05:47:25;;;;;;;18.70;8.70;;;13.20;99.90;;;;;;5054473;28;20029;-72
2024/03/22 05:49:52;;;;;;;14.82;7.88;;;13.20;99.90;;;;;;5062410;28;20025;-73
2024/03/22 05:52:17;;;;;;;20.17;9.60;;;13.20;99.90;;;;;;5048950;28;20029;-72
2024/03/22 05:54:44;;;;;;;37.60;13.02;;;13.20;99.90;;;;;;5055576;28;20094;-72
2024/03/22 05:57:10;;;;;;;15.43;7.95;;;13.30;99.90;;;;;;5064997;28;20028;-73
2024/03/22 05:59:36;;;;;;;20.02;9.63;;;13.30;99.90;;;;;;5054881;28;20461;-73
2024/03/22 06:02:02;;;;;;;28.65;8.43;;;13.30;99.90;;;;;;5068156;28;20050;-72
2024/03/22 06:04:27;;;;;;;14.88;7.63;;;13.30;99.90;;;;;;5061073;28;20473;-73
2024/03/22 06:06:53;;;;;;;19.38;9.38;;;13.30;99.90;;;;;;5066514;28;20033;-72
2024/03/22 06:09:34;;;;;;;28.63;12.07;;;13.30;99.90;;;;;;5060548;28;20043;-72
2024/03/22 06:12:02;;;;;;;17.25;8.63;;;13.20;99.90;;;;;;5054770;28;20083;-73
2024/03/22 06:14:27;;;;;;;14.63;7.53;;;13.30;99.90;;;;;;5051656;28;20054;-72
2024/03/22 06:16:53;;;;;;;30.10;11.73;;;13.20;99.90;;;;;;5058766;28;20766;-73
2024/03/22 06:19:19;;;;;;;22.70;10.82;;;13.30;99.90;;;;;;5059495;28;20111;-73
2024/03/22 06:21:44;;;;;;;24.50;10.82;;;13.20;99.90;;;;;;5061721;28;20029;-73
2024/03/22 06:24:10;;;;;;;23.42;10.90;;;13.20;99.90;;;;;;5050976;28;20243;-74
2024/03/22 06:26:35;;;;;;;22.95;9.45;;;13.20;99.90;;;;;;5054646;28;20094;-74
2024/03/22 06:29:01;;;;;;;22.40;9.45;;;13.10;99.90;;;;;;5053579;28;20055;-73
2024/03/22 06:31:27;;;;;;;23.63;8.77;;;13.10;99.90;;;;;;5053974;28;20033;-71
2024/03/22 06:33:53;;;;;;;15.90;6.85;;;13.10;99.90;;;;;;5048424;28;20425;-73
2024/03/22 06:36:19;;;;;;;18.42;8.48;;;13.10;99.90;;;;;;5054730;28;20037;-73
2024/03/22 06:38:45;;;;;;;17.75;8.20;;;13.10;99.90;;;;;;5051760;28;20112;-73
2024/03/22 06:41:10;;;;;;;27.05;10.35;;;13.10;99.90;;;;;;5058108;28;20464;-73
2024/03/22 06:43:36;;;;;;;23.00;9.10;;;13.10;99.90;;;;;;5059840;28;20047;-73
2024/03/22 06:46:02;;;;;;;18.20;7.80;;;13.10;99.90;;;;;;5058957;28;20047;-73
2024/03/22 06:48:27;;;;;;;22.75;9.38;;;13.10;99.90;;;;;;5050773;28;20032;-73
2024/03/22 06:50:53;;;;;;;20.33;8.65;;;13.10;99.90;;;;;;5065407;28;20384;-73
2024/03/22 06:53:19;;;;;;;22.13;11.07;;;13.00;99.90;;;;;;5062158;28;20469;-74
2024/03/22 06:55:44;;;;;;;18.80;9.02;;;13.00;99.90;;;;;;5049748;28;20056;-73
2024/03/22 06:58:10;;;;;;;20.55;9.27;;;13.00;99.90;;;;;;5050099;28;20073;-78
2024/03/22 07:00:36;;;;;;;15.60;7.85;;;13.00;99.90;;;;;;5062744;28;20032;-73
2024/03/22 07:03:02;;;;;;;14.10;7.47;;;13.00;99.90;;;;;;5067399;28;20036;-74
2024/03/22 07:05:29;;;;;;;19.00;9.55;;;13.00;99.90;;;;;;5052693;28;20051;-74
2024/03/22 07:07:57;;;;;;;17.30;8.48;;;12.90;99.90;;;;;;5067281;28;20032;-74
2024/03/22 07:10:27;;;;;;;23.70;8.15;;;12.90;99.90;;;;;;5055820;28;20114;-74
2024/03/22 07:12:56;;;;;;;14.55;6.80;;;12.90;99.90;;;;;;5047974;28;20107;-74
2024/03/22 07:15:25;;;;;;;16.67;8.68;;;12.90;99.90;;;;;;5056248;28;20028;-73
2024/03/22 07:17:51;;;;;;;25.02;9.52;;;12.90;99.90;;;;;;5054047;28;20399;-74
2024/03/22 07:20:17;;;;;;;17.05;7.57;;;12.90;99.90;;;;;;5060688;28;20035;-74
2024/03/22 07:22:42;;;;;;;17.48;7.75;;;12.90;99.90;;;;;;5065662;28;20038;-73
2024/03/22 07:25:11;;;;;;;18.40;8.90;;;12.90;99.90;;;;;;5049565;28;20400;-74
2024/03/22 07:27:37;;;;;;;19.27;8.10;;;12.90;99.90;;;;;;5059938;28;20807;-74
2024/03/22 07:30:03;;;;;;;18.23;8.20;;;12.80;99.90;;;;;;5050547;28;20060;-73
2024/03/22 07:32:30;;;;;;;16.30;6.97;;;12.80;99.90;;;;;;5057107;28;20400;-74
2024/03/22 07:34:55;;;;;;;19.73;7.35;;;12.80;99.90;;;;;;5051169;28;20037;-74
2024/03/22 07:37:21;;;;;;;12.52;6.45;;;12.80;99.90;;;;;;5047055;28;20036;-74
2024/03/22 07:39:47;;;;;;;12.15;6.55;;;12.80;99.90;;;;;;5058753;28;20059;-74
2024/03/22 07:42:13;;;;;;;14.43;7.32;;;12.80;99.90;;;;;;5049906;28;20037;-74
2024/03/22 07:44:38;;;;;;;17.52;6.75;;;12.80;99.90;;;;;;5057270;28;20068;-74
2024/03/22 07:47:04;;;;;;;8.13;4.88;;;12.80;99.90;;;;;;5052973;28;20036;-74
2024/03/22 07:49:31;;;;;;;16.30;6.32;;;12.80;99.90;;;;;;5049155;28;20361;-73
2024/03/22 07:51:57;;;;;;;15.13;7.00;;;12.80;99.90;;;;;;5047573;28;20036;-74
2024/03/22 07:54:22;;;;;;;12.38;5.10;;;12.80;99.90;;;;;;5049607;28;20048;-74
2024/03/22 07:56:48;;;;;;;17.15;6.85;;;12.80;99.90;;;;;;5045621;28;20033;-74
2024/03/22 07:59:14;;;;;;;21.33;7.55;;;12.80;99.90;;;;;;5046458;28;20056;-74
2024/03/22 08:01:40;;;;;;;9.93;5.00;;;12.80;99.90;;;;;;5063797;28;20036;-74
2024/03/22 08:04:06;;;;;;;11.13;6.10;;;12.80;99.90;;;;;;5065617;28;20043;-74
2024/03/22 08:06:31;;;;;;;12.57;6.57;;;12.80;99.90;;;;;;5053787;28;20111;-74
2024/03/22 08:08:57;;;;;;;10.93;5.45;;;12.80;99.90;;;;;;5056505;28;20029;-73
2024/03/22 08:11:23;;;;;;;10.70;4.28;;;12.80;99.90;;;;;;5052726;28;20045;-74
2024/03/22 08:13:49;;;;;;;11.68;5.38;;;12.80;99.90;;;;;;5050569;28;20086;-74
2024/03/22 08:16:14;;;;;;;11.98;5.53;;;12.80;99.90;;;;;;5052127;28;20052;-74
2024/03/22 08:18:40;;;;;;;11.70;4.68;;;12.80;99.90;;;;;;5051627;28;20063;-74
2024/03/22 08:21:05;;;;;;;12.50;6.60;;;12.80;99.90;;;;;;5053407;28;20087;-74
2024/03/22 08:23:31;;;;;;;8.80;5.18;;;12.80;99.90;;;;;;5059342;28;20486;-74
2024/03/22 08:25:57;;;;;;;7.78;4.57;;;12.80;99.90;;;;;;5056369;28;20048;-74
2024/03/22 08:28:23;;;;;;;9.77;4.85;;;12.80;99.90;;;;;;5055014;28;20029;-74
2024/03/22 08:30:49;;;;;;;11.30;5.15;;;12.70;99.90;;;;;;5060112;28;20476;-74
2024/03/22 08:33:15;;;;;;;8.07;3.92;;;12.70;99.90;;;;;;5059420;28;20119;-74
2024/03/22 08:35:40;;;;;;;8.82;4.32;;;12.80;99.90;;;;;;5063293;28;20041;-74
2024/03/22 08:38:10;;;;;;;8.40;4.30;;;12.80;99.90;;;;;;5058992;28;20175;-74
2024/03/22 08:40:37;;;;;;;7.10;3.67;;;12.80;99.90;;;;;;5071541;28;20029;-74
2024/03/22 08:43:04;;;;;;;9.85;5.10;;;12.80;99.90;;;;;;5050768;28;20025;-73
2024/03/22 08:45:29;;;;;;;6.93;3.67;;;12.80;99.90;;;;;;5059827;28;20128;-76
2024/03/22 08:47:55;;;;;;;5.88;3.03;;;12.80;99.90;;;;;;5064097;28;20447;-75
2024/03/22 08:50:20;;;;;;;7.43;4.25;;;12.80;99.90;;;;;;5062692;28;20041;-75
2024/03/22 08:52:46;;;;;;;5.38;3.40;;;12.90;99.90;;;;;;5064551;28;20029;-74
2024/03/22 08:55:13;;;;;;;5.80;3.47;;;12.80;99.90;;;;;;5059193;28;20033;-75
2024/03/22 08:57:38;;;;;;;6.97;3.58;;;12.80;99.90;;;;;;5063794;28;20472;-74
2024/03/22 09:00:04;;;;;;;6.35;3.38;;;12.90;99.90;;;;;;5056887;28;20041;-75
2024/03/22 09:02:30;;;;;;;7.32;3.33;;;12.80;99.90;;;;;;5051391;28;20095;-74
2024/03/22 09:04:56;;;;;;;5.25;3.38;;;12.90;99.90;;;;;;5059897;28;20033;-74
2024/03/22 09:07:23;;;;;;;4.85;2.75;;;12.90;99.90;;;;;;5052481;28;20025;-74
2024/03/22 09:09:49;;;;;;;5.97;2.85;;;12.80;99.90;;;;;;5060884;28;20135;-74
2024/03/22 09:12:14;;;;;;;5.10;3.22;;;12.80;99.90;;;;;;5061831;28;20033;-74
2024/03/22 09:14:40;;;;;;;5.45;2.92;;;12.80;99.90;;;;;;5068810;28;20047;-74
2024/03/22 09:17:05;;;;;;;1.92;1.73;;;12.90;99.90;;;;;;5057686;28;20078;-74
2024/03/22 09:19:31;;;;;;;5.47;2.90;;;12.90;99.90;;;;;;5066941;28;20064;-74
2024/03/22 09:21:57;;;;;;;5.32;3.25;;;12.90;99.90;;;;;;5059931;28;20474;-75
2024/03/22 09:24:23;;;;;;;3.42;2.28;;;12.90;99.90;;;;;;5055338;28;20041;-75
2024/03/22 09:26:48;;;;;;;4.22;2.33;;;12.90;99.90;;;;;;5061959;28;20036;-74
2024/03/22 09:29:14;;;;;;;5.18;2.90;;;12.90;99.90;;;;;;5051943;28;20021;-75
2024/03/22 09:31:39;;;;;;;3.00;1.50;;;12.90;99.90;;;;;;5062248;28;20028;-75
2024/03/22 09:34:05;;;;;;;4.85;2.17;;;12.90;99.90;;;;;;5051066;28;20060;-75
2024/03/22 09:36:35;;;;;;;3.35;1.98;;;12.90;99.90;;;;;;5058164;28;20029;-75
2024/03/22 09:39:01;;;;;;;2.10;1.55;;;13.00;99.90;;;;;;5059121;28;20044;-75
2024/03/22 09:41:27;;;;;;;3.03;2.08;;;13.00;99.90;;;;;;5056776;28;20040;-75
2024/03/22 09:43:54;;;;;;;3.70;2.28;;;13.00;99.90;;;;;;5057943;28;20078;-74
2024/03/22 09:46:22;;;;;;;2.25;1.75;;;13.00;99.90;;;;;;5057493;28;20499;-75
2024/03/22 09:48:49;;;;;;;6.78;2.67;;;13.00;99.90;;;;;;5057577;28;20032;-75
2024/03/22 09:51:18;;;;;;;3.25;2.28;;;13.00;99.90;;;;;;5048141;28;20143;-75
2024/03/22 09:53:49;;;;;;;2.85;1.92;;;13.00;99.90;;;;;;5053656;28;20052;-75
2024/03/22 09:56:15;;;;;;;2.20;1.23;;;13.00;99.90;;;;;;5058246;28;20025;-75
2024/03/22 09:58:42;;;;;;;3.50;1.73;;;13.00;99.90;;;;;;5056536;28;20061;-75
2024/03/22 10:01:08;;;;;;;2.38;1.65;;;13.10;99.90;;;;;;5064770;28;20382;-75
2024/03/22 10:03:34;;;;;;;4.45;1.95;;;13.10;99.90;;;;;;5057849;28;20029;-73
2024/03/22 10:06:00;;;;;;;2.20;1.60;;;13.00;99.90;;;;;;5053773;28;20040;-77
2024/03/22 10:08:25;;;;;;;3.00;1.45;;;13.10;99.90;;;;;;5060336;28;20460;-75
2024/03/22 10:10:51;;;;;;;2.05;1.63;;;13.00;99.90;;;;;;5053874;28;20020;-75
2024/03/22 10:13:17;;;;;;;3.22;1.85;;;13.10;99.90;;;;;;5065510;28;20038;-75
2024/03/22 10:15:42;;;;;;;1.00;0.75;;;13.10;99.90;;;;;;5057745;28;20029;-75
2024/03/22 10:18:10;;;;;;;0.77;0.77;;;13.10;99.90;;;;;;5051016;28;20392;-75
2024/03/22 10:20:35;;;;;;;2.35;1.95;;;13.10;99.90;;;;;;5051339;28;20041;-76
2024/03/22 10:23:01;;;;;;;2.58;1.70;;;13.10;99.90;;;;;;5058727;28;20043;-75
2024/03/22 10:25:28;;;;;;;1.55;1.15;;;13.10;99.90;;;;;;5060794;28;20133;-75
2024/03/22 10:27:57;;;;;;;2.03;1.10;;;13.20;99.90;;;;;;5052276;28;20472;-76
2024/03/22 10:30:24;;;;;;;0.90;0.82;;;13.20;99.90;;;;;;5049741;28;20036;-76
2024/03/22 10:32:51;;;;;;;3.70;2.15;;;13.20;99.90;;;;;;5058720;28;20077;-75
2024/03/22 10:35:17;;;;;;;1.77;1.13;;;13.30;99.90;;;;;;5059941;28;20566;-75
2024/03/22 10:37:43;;;;;;;3.70;2.10;;;13.20;99.90;;;;;;5051565;28;20048;-75
2024/03/22 10:40:09;;;;;;;2.53;1.27;;;13.30;99.90;;;;;;5058257;28;20048;-74
2024/03/22 10:42:36;;;;;;;2.40;1.50;;;13.30;99.90;;;;;;5052538;28;20468;-76
2024/03/22 10:45:04;;;;;;;2.58;1.38;;;13.30;99.90;;;;;;5050872;28;20045;-76
2024/03/22 10:47:32;;;;;;;1.65;1.20;;;13.30;99.90;;;;;;5056773;28;20388;-75
2024/03/22 10:50:08;;;;;;;1.45;1.08;;;13.40;99.90;;;;;;5058126;28;20365;-75
2024/03/22 10:52:58;;;;;;;0.75;0.70;;;13.40;99.90;;;;;;5061274;28;20098;-76
2024/03/22 10:55:28;;;;;;;2.88;1.55;;;13.40;99.90;;;;;;5057365;28;20033;-75
2024/03/22 10:57:54;;;;;;;3.70;1.85;;;13.40;99.90;;;;;;5050385;28;20055;-76
2024/03/22 11:00:31;;;;;;;5.28;1.75;;;13.40;99.90;;;;;;5049426;28;20029;-76
2024/03/22 11:02:57;;;;;;;3.13;1.52;;;13.50;99.90;;;;;;5065406;28;20040;-76
2024/03/22 11:05:23;;;;;;;0.85;0.75;;;13.40;99.90;;;;;;5058781;28;20040;-76
2024/03/22 11:07:59;;;;;;;4.43;2.10;;;13.50;99.90;;;;;;5056430;28;20063;-76
2024/03/22 11:10:34;;;;;;;2.35;1.40;;;13.50;99.90;;;;;;5053287;28;20039;-76
2024/03/22 11:13:07;;;;;;;5.70;1.50;;;13.50;99.90;;;;;;5060514;28;20118;-76
2024/03/22 11:15:33;;;;;;;1.73;1.40;;;13.50;99.90;;;;;;5052003;28;20112;-76
2024/03/22 11:17:59;;;;;;;5.72;1.90;;;13.50;99.90;;;;;;5054976;28;20033;-76
2024/03/22 11:20:26;;;;;;;1.50;0.88;;;13.50;99.90;;;;;;5052843;28;20112;-74
2024/03/22 11:22:52;;;;;;;3.72;1.38;;;13.60;99.90;;;;;;5062210;28;20541;-75
2024/03/22 11:25:19;;;;;;;5.68;2.30;;;13.50;99.90;;;;;;5065236;28;20040;-76
2024/03/22 11:27:45;;;;;;;8.05;2.33;;;13.60;99.90;;;;;;5059113;28;20032;-76
2024/03/22 11:30:11;;;;;;;5.45;1.83;;;13.50;99.90;;;;;;5058228;28;20032;-75
2024/03/22 11:32:43;;;;;;;6.10;2.25;;;13.60;99.90;;;;;;5064874;28;20082;-74
2024/03/22 11:35:13;;;;;;;1.23;0.77;;;13.60;99.90;;;;;;5053450;28;20563;-74
2024/03/22 11:37:42;;;;;;;6.90;2.00;;;13.60;99.90;;;;;;5048292;28;20033;-74
2024/03/22 11:40:12;;;;;;;1.95;1.13;;;13.60;99.90;;;;;;5048243;28;20464;-74
2024/03/22 11:42:47;;;;;;;6.55;2.40;;;13.60;99.90;;;;;;5058701;28;20029;-74
2024/03/22 11:45:16;;;;;;;7.13;2.55;;;13.60;99.90;;;;;;5059344;28;20097;-74
2024/03/22 11:47:41;;;;;;;4.43;1.83;;;13.60;99.90;;;;;;5057975;28;20029;-74
2024/03/22 11:50:08;;;;;;;5.97;2.15;;;13.60;99.90;;;;;;5054687;28;20039;-74
2024/03/22 11:52:35;;;;;;;11.45;2.45;;;13.60;99.90;;;;;;5053639;28;20062;-76
2024/03/22 11:55:01;;;;;;;14.38;2.45;;;13.60;99.90;;;;;;5051838;28;20039;-74
2024/03/22 11:57:28;;;;;;;10.98;2.10;;;13.60;99.90;;;;;;5051118;28;20024;-74
2024/03/22 12:00:04;;;;;;;13.52;2.67;;;13.70;99.90;;;;;;5051111;28;20060;-74
2024/03/22 12:02:38;;;;;;;8.70;1.98;;;13.70;99.90;;;;;;5067057;28;20033;-74
2024/03/22 12:05:05;;;;;;;9.77;2.53;;;13.70;99.90;;;;;;5056857;28;20377;-74
2024/03/22 12:07:32;;;;;;;10.77;2.63;;;13.70;99.90;;;;;;5056206;28;20036;-74
2024/03/22 12:09:57;;;;;;;12.02;2.45;;;13.70;99.90;;;;;;5061292;28;20481;-74
2024/03/22 12:12:24;;;;;;;10.20;2.65;;;13.70;99.90;;;;;;5062173;28;20039;-74
2024/03/22 12:14:52;;;;;;;15.93;2.75;;;13.70;99.90;;;;;;5050230;28;20048;-74
2024/03/22 12:17:18;;;;;;;10.40;2.17;;;13.70;99.90;;;;;;5059692;28;20155;-74
2024/03/22 12:19:44;;;;;;;15.52;2.78;;;13.70;99.90;;;;;;5066532;28;20696;-74
2024/03/22 12:22:10;;;;;;;21.00;3.50;;;13.70;99.90;;;;;;5067902;28;20131;-74
2024/03/22 12:24:36;;;;;;;13.50;2.05;;;13.70;99.90;;;;;;5066874;28;20055;-74
2024/03/22 12:27:02;;;;;;;8.02;1.95;;;13.80;99.90;;;;;;5056672;28;20142;-74
2024/03/22 12:29:28;;;;;;;5.75;1.85;;;13.70;99.90;;;;;;5057110;28;20084;-74
2024/03/22 12:31:54;;;;;;;15.40;2.45;;;13.70;99.90;;;;;;5052205;28;20059;-74